This is the latest recevied weather packets stored in our database for station/object WK7G. If no packets are shown the sender has not sent any weather packets the latest 10 day(s).
| Time | Temp. | Humidity | Pressure | Rain* | Wind** | Luminosity | Snow |
|---|---|---|---|---|---|---|---|
| 1778031638 | 8.33° C | 39% | 1004.5 hPa | 0 mm | - | 33 W/m² | - |
| 1778031336 | 8.89° C | 40% | 1004.8 hPa | 0 mm | - | 45 W/m² | - |
| 1778031032 | 8.89° C | 40% | 1004.5 hPa | 0 mm | - | 54 W/m² | - |
| 1778030729 | 8.89° C | 40% | 1004.5 hPa | 0 mm | - | 85 W/m² | - |
| 1778030426 | 8.89° C | 40% | 1004.3 hPa | 0 mm | - | 73 W/m² | - |
| 1778030124 | 8.89° C | 41% | 1004.4 hPa | 0 mm | - | 121 W/m² | - |
| 1778029820 | 9.44° C | 41% | 1004.2 hPa | 0 mm | - | 56 W/m² | - |
| 1778029519 | 9.44° C | 41% | 1004.2 hPa | 0 mm | - | 95 W/m² | - |
| 1778029215 | 9.44° C | 40% | 1004.3 hPa | 0 mm | - | 151 W/m² | - |
| 1778028913 | 9.44° C | 41% | 1003.8 hPa | 0 mm | - | 163 W/m² | - |
| 1778028608 | 10° C | 40% | 1003.6 hPa | 0 mm | - | 164 W/m² | - |
| 1778028306 | 10° C | 39% | 1003.8 hPa | 0 mm | - | 199 W/m² | - |
| 1778028002 | 10° C | 41% | 1003.7 hPa | 0 mm | - | 96 W/m² | - |
| 1778027698 | 10.56° C | 39% | 1003.9 hPa | 0 mm | - | 238 W/m² | - |
| 1778027394 | 10.56° C | 38% | 1003.8 hPa | 0 mm | - | 86 W/m² | - |
| 1778027091 | 11.11° C | 37% | 1003.7 hPa | 0 mm | - | 340 W/m² | - |
| 1778026786 | 10.56° C | 38% | 1003.4 hPa | 0 mm | - | 111 W/m² | - |
| 1778026483 | 11.67° C | 37% | 1003.4 hPa | 0 mm | - | 373 W/m² | - |
| 1778026181 | 11.11° C | 34% | 1003.6 hPa | 0 mm | - | 363 W/m² | - |
| 1778025878 | 10.56° C | 34% | 1003.4 hPa | 0 mm | - | 415 W/m² | - |
| 1778025575 | 11.11° C | 36% | 1003.3 hPa | 0 mm | - | 278 W/m² | - |
| 1778025273 | 11.67° C | 32% | 1003.8 hPa | 0 mm | - | 440 W/m² | - |
| 1778024970 | 11.67° C | 32% | 1003.6 hPa | 0 mm | - | 446 W/m² | - |
| 1778024667 | 11.67° C | 34% | 1004 hPa | 0 mm | - | 459 W/m² | - |
| 1778024363 | 11.67° C | 32% | 1003.8 hPa | 0 mm | - | 450 W/m² | - |
* Rain latest hour (hover to see other rain measurements)
** Current wind speed in m/s (hover to see current wind gust speed)